Monday, July 23, 2018, 11:28 AM EDT
Back to Local

KHFD, Hartford-brainard Airport

Location: Hartford, CT, United States Lat: 41.733
Local Time: 11:28 AM EDT (15:28 GMT) Lon: -72.65
Time Zone: US/Eastern Elev: 19 ft

Show me the last for .
Show Decoded

2018-07-23 11:23 METAR KHFD 231523Z 17009G16KT 4SM -RA BR BKN018 BKN026 OVC043 25/24 A3015 RMK
                 AO2 P0018 T02500244 =
2018-07-23 11:02 METAR KHFD 231502Z 16011KT 1 3/4SM +RA BR BKN019 OVC026 26/24 A3015 RMK AO2
                 P0006 T02560239 =
2018-07-23 10:53 METAR KHFD 231453Z 15010G19KT 3SM -RA BR BKN015 BKN025 OVC038 26/23 A3015 RMK
                 AO2 RAB43 SLP208 VIS W-NW 1 3/4SM P0002 60002 T02560233 51007 =
2018-07-23 09:53 METAR KHFD 231353Z 16010G21KT 10SM OVC017 27/23 A3014 RMK AO2 SLP207 T02670233 =
2018-07-23 09:31 METAR KHFD 231331Z 17010KT 10SM BKN015 OVC025 26/23 A3014 RMK AO2 T02610228 =
2018-07-23 08:53 METAR KHFD 231253Z 16012G20KT 10SM BKN014 OVC021 26/23 A3014 RMK AO2 RAE1156
                 SLP204 P0000 T02560233 =
2018-07-23 07:53 METAR KHFD 231153Z 16009KT 8SM -RA BKN013 OVC017 24/23 A3013 RMK AO2
                 RAE00B07E18B45 SLP202 P0000 60001 70113 T02440233 10244 20239 51014 =
2018-07-23 07:06 METAR KHFD 231106Z 16007KT 8SM BKN013 OVC021 24/23 A3012 RMK AO2 RAE00 P0000
                 T02390228 =
2018-07-23 06:53 METAR KHFD 231053Z 15007KT 7SM -RA BKN015 OVC020 24/23 A3011 RMK AO2 RAB08
                 SLP197 P0001 T02390228 =
2018-07-23 05:53 METAR KHFD 230953Z 15006KT 10SM OVC010 24/23 A3011 RMK AO2 SLP195 T02390228 =
2018-07-23 04:53 METAR KHFD 230853Z AUTO 15007KT 10SM OVC012 24/23 A3009 RMK AO2 SLP188 T02390228
                 53001 =
2018-07-23 04:02 METAR KHFD 230802Z AUTO 16007KT 10SM OVC010 24/23 A3008 RMK AO2 T02390228 =
2018-07-23 03:53 METAR KHFD 230753Z AUTO 15008KT 10SM OVC009 24/23 A3008 RMK AO2 CIG 008V013
                 SLP187 T02390228 =
2018-07-23 02:53 METAR KHFD 230653Z AUTO 16009KT 10SM BKN009 OVC013 24/23 A3008 RMK AO2 SLP185
                 T02390228 =
2018-07-23 02:38 METAR KHFD 230638Z AUTO 16008KT 10SM OVC010 24/23 A3008 RMK AO2 CIG 008V014
                 T02390233 =
2018-07-23 01:53 METAR KHFD 230553Z AUTO 16008KT 10SM OVC009 24/23 A3008 RMK AO2 CIG 007V013
                 SLP187 60107 T02390233 10244 20228 50001 =
2018-07-23 00:53 METAR KHFD 230453Z AUTO 17007KT 10SM BKN014 OVC018 24/23 A3009 RMK AO2 RAE31
                 SLP188 P0005 T02390228 402830194 =
2018-07-23 00:08 METAR KHFD 230408Z AUTO 17006KT 5SM -RA BR BKN014 OVC020 23/23 A3009 RMK AO2
                 P0003 T02330228 =
2018-07-23 00:01 METAR KHFD 230401Z AUTO 20006KT 2 1/2SM -RA BR BKN014 OVC020 23/23 A3009 RMK AO2
                 P0002 T02330228 =
2018-07-22 23:53 METAR KHFD 230353Z 17007KT 1 3/4SM +RA BR FEW008 BKN015 OVC025 23/23 A3009 RMK
                 AO2 LTG DSNT W SLP188 P0060 T02330228 =
2018-07-22 23:34 METAR KHFD 230334Z 15007KT 1 1/4SM +RA BR SCT009 BKN016 OVC021 23/23 A3009 RMK
                 AO2 P0033 T02330228 =
2018-07-22 23:26 METAR KHFD 230326Z VRB06KT 2SM +RA BR FEW009 BKN014 OVC021 23/23 A3009 RMK AO2
                 P0018 T02330228 =
2018-07-22 23:22 METAR KHFD 230322Z 13004KT 3SM RA BR BKN014 BKN021 OVC025 23/22 A3008 RMK AO2
                 P0011 T02330222 =
2018-07-22 22:57 METAR KHFD 230257Z 16004KT 3SM -RA BR FEW010 OVC023 23/23 A3008 RMK AO2 P0000
                 T02330228 =
2018-07-22 22:53 METAR KHFD 230253Z 16004KT 1 3/4SM +RA BR FEW010 SCT018 OVC023 23/23 A3008 RMK
                 AO2 VIS 1 1/4V3 RAB27 SLP186 P0021 60042 T02330228 50003 =
2018-07-22 22:51 METAR KHFD 230251Z 16004KT 2SM +RA BR FEW010 SCT018 OVC025 23/22 A3008 RMK AO2
                 VIS 1 1/4V2 1/2 RAB27 P0020 =
2018-07-22 22:32 METAR KHFD 230232Z 16007KT 4SM +RA BR SCT011 BKN016 OVC025 23/23 A3008 RMK AO2
                 RAB27 P0004 T02330228 =
2018-07-22 21:53 METAR KHFD 230153Z 16004KT 10SM OVC011 23/22 A3008 RMK AO2 RAE49 SLP186 P0013
                 T02330222 =
2018-07-22 21:32 METAR KHFD 230132Z 11004KT 3SM -RA BR BKN013 OVC018 23/22 A3008 RMK AO2 P0012
                 T02280222 =
2018-07-22 21:23 METAR KHFD 230123Z 12003KT 2 1/2SM +RA BR OVC015 23/22 A3008 RMK AO2 VIS 1 1/4V5
                 P0010 T02280222 =
2018-07-22 20:53 METAR KHFD 230053Z 00000KT 6SM -RA BR OVC011 23/22 A3007 RMK AO2 RAB25 SLP183
                 P0008 T02330222 =
2018-07-22 20:43 METAR KHFD 230043Z 00000KT 10SM -RA OVC013 23/22 A3007 RMK AO2 RAB25 P0007
                 T02280222 =
2018-07-22 20:36 METAR KHFD 230036Z 00000KT 2 1/2SM -RA BR OVC013 23/22 A3007 RMK AO2 RAB25 P0007
                 T02280222 =
2018-07-22 19:53 METAR KHFD 222353Z 00000KT 10SM OVC013 23/22 A3007 RMK AO2 RAE05 SLP180 P0001
                 60005 T02280217 10283 20228 51011 =
2018-07-22 19:25 METAR KHFD 222325Z 13003KT 10SM OVC014 23/22 A3006 RMK AO2 RAE05 P0001 T02280217
                 =
2018-07-22 18:53 METAR KHFD 222253Z VRB04KT 6SM -RA BR BKN020 OVC025 23/22 A3006 RMK AO2 RAB32
                 SLP179 P0004 T02280217 =
2018-07-22 18:45 METAR KHFD 222245Z 14006KT 3SM -RA BR OVC024 23/22 A3006 RMK AO2 RAB32 P0004
                 T02280217 =
2018-07-22 18:37 METAR KHFD 222237Z 15010G20KT 1 3/4SM +RA BR BKN024 OVC032 23/21 A3006 RMK AO2
                 RAB32 P0004 T02330211 =
2018-07-22 18:17 METAR KHFD 222217Z 13007KT 10SM BKN026 OVC033 26/21 A3005 RMK AO2 T02560206 =
2018-07-22 17:53 METAR KHFD 222153Z 15007KT 10SM FEW022 26/21 A3005 RMK AO2 SLP174 T02610206 =
2018-07-22 17:00 METAR KHFD 222100Z 15010KT 10SM SCT025 SCT032 27/22 A3004 RMK AO2 T02670217 =
2018-07-22 16:53 METAR KHFD 222053Z 15009KT 10SM BKN027 BKN030 BKN035 27/22 A3003 RMK AO2 SLP169
                 T02670217 53007 =
2018-07-22 15:53 METAR KHFD 221953Z 15007KT 10SM BKN027 OVC034 27/22 A3002 RMK AO2 SLP164
                 T02720222 =
2018-07-22 14:53 METAR KHFD 221853Z 16007G19KT 10SM FEW023 BKN030 BKN039 28/22 A3001 RMK AO2
                 SLP161 T02780222 =
2018-07-22 13:53 METAR KHFD 221753Z 15010G16KT 100V170 10SM SCT021 BKN026 BKN032 27/22 A3001 RMK
                 AO2 SLP162 T02670222 10278 20217 53008 =
2018-07-22 12:53 METAR KHFD 221653Z 17012G19KT 10SM BKN019 OVC029 27/23 A3000 RMK AO2 SLP160
                 T02670228 =
2018-07-22 12:43 METAR KHFD 221643Z 18014G21KT 10SM BKN019 BKN029 27/23 A3000 RMK AO2 T02670228 =
2018-07-22 12:19 METAR KHFD 221619Z 15013G19KT 10SM SCT019 BKN033 27/23 A3000 RMK AO2 T02670228 =
2018-07-22 11:53 METAR KHFD 221553Z 17009G17KT 10SM BKN018 BKN024 OVC042 27/23 A2999 RMK AO2
                 SLP155 T02670228 =

Support USWX by starting your Amazon purchase here.